sensor_id;sensor_type;location;lat;lon;timestamp;temperature;humidity
52709;DHT22;38606;52.986;6.980;2023-01-26T00:00:59;0.30;99.90
52709;DHT22;38606;52.986;6.980;2023-01-26T00:03:25;0.30;99.90
52709;DHT22;38606;52.986;6.980;2023-01-26T00:05:51;0.20;99.90
52709;DHT22;38606;52.986;6.980;2023-01-26T00:08:17;0.50;99.90
52709;DHT22;38606;52.986;6.980;2023-01-26T00:10:43;1.10;99.90
52709;DHT22;38606;52.986;6.980;2023-01-26T00:13:16;0.20;99.90
52709;DHT22;38606;52.986;6.980;2023-01-26T00:15:44;1.70;99.90
52709;DHT22;38606;52.986;6.980;2023-01-26T00:18:09;1.60;99.90
52709;DHT22;38606;52.986;6.980;2023-01-26T00:20:35;0.40;99.90
52709;DHT22;38606;52.986;6.980;2023-01-26T00:23:01;0.20;99.90
52709;DHT22;38606;52.986;6.980;2023-01-26T00:25:27;1.20;99.90
52709;DHT22;38606;52.986;6.980;2023-01-26T00:27:53;0.10;99.90
52709;DHT22;38606;52.986;6.980;2023-01-26T00:30:18;0.30;99.90
52709;DHT22;38606;52.986;6.980;2023-01-26T00:32:45;0.30;99.90
52709;DHT22;38606;52.986;6.980;2023-01-26T00:35:11;1.60;99.90
52709;DHT22;38606;52.986;6.980;2023-01-26T00:37:36;0.50;99.90
52709;DHT22;38606;52.986;6.980;2023-01-26T00:40:02;0.10;99.90
52709;DHT22;38606;52.986;6.980;2023-01-26T00:42:28;0.30;99.90
52709;DHT22;38606;52.986;6.980;2023-01-26T00:44:54;1.50;99.90
52709;DHT22;38606;52.986;6.980;2023-01-26T00:47:19;0.20;99.90
52709;DHT22;38606;52.986;6.980;2023-01-26T00:49:45;0.40;99.90
52709;DHT22;38606;52.986;6.980;2023-01-26T00:52:11;0.30;99.90
52709;DHT22;38606;52.986;6.980;2023-01-26T00:54:37;1.70;99.90
52709;DHT22;38606;52.986;6.980;2023-01-26T00:57:03;0.00;99.90
52709;DHT22;38606;52.986;6.980;2023-01-26T00:59:29;0.70;99.90
52709;DHT22;38606;52.986;6.980;2023-01-26T01:01:57;0.20;99.90
52709;DHT22;38606;52.986;6.980;2023-01-26T01:04:24;0.70;99.90
52709;DHT22;38606;52.986;6.980;2023-01-26T01:06:50;0.30;99.90
52709;DHT22;38606;52.986;6.980;2023-01-26T01:09:16;0.30;99.90
52709;DHT22;38606;52.986;6.980;2023-01-26T01:11:42;0.80;99.90
52709;DHT22;38606;52.986;6.980;2023-01-26T01:14:11;0.40;99.90
52709;DHT22;38606;52.986;6.980;2023-01-26T01:16:37;1.60;99.90
52709;DHT22;38606;52.986;6.980;2023-01-26T01:19:03;0.50;99.90
52709;DHT22;38606;52.986;6.980;2023-01-26T01:21:29;0.40;99.90
52709;DHT22;38606;52.986;6.980;2023-01-26T01:23:57;0.20;99.90
52709;DHT22;38606;52.986;6.980;2023-01-26T01:26:22;0.30;99.90
52709;DHT22;38606;52.986;6.980;2023-01-26T01:28:52;0.50;99.90
52709;DHT22;38606;52.986;6.980;2023-01-26T01:31:18;0.40;99.90
52709;DHT22;38606;52.986;6.980;2023-01-26T01:33:43;0.40;99.90
52709;DHT22;38606;52.986;6.980;2023-01-26T01:36:12;0.40;99.90
52709;DHT22;38606;52.986;6.980;2023-01-26T01:38:38;0.30;99.90
52709;DHT22;38606;52.986;6.980;2023-01-26T01:41:04;0.20;99.90
52709;DHT22;38606;52.986;6.980;2023-01-26T01:43:29;0.40;99.90
52709;DHT22;38606;52.986;6.980;2023-01-26T01:45:57;1.20;99.90
52709;DHT22;38606;52.986;6.980;2023-01-26T01:53:57;1.80;99.90
52709;DHT22;38606;52.986;6.980;2023-01-26T01:56:26;0.50;99.90
52709;DHT22;38606;52.986;6.980;2023-01-26T01:58:56;0.40;99.90
52709;DHT22;38606;52.986;6.980;2023-01-26T02:01:23;1.80;99.90
52709;DHT22;38606;52.986;6.980;2023-01-26T02:03:52;0.40;99.90
52709;DHT22;38606;52.986;6.980;2023-01-26T02:06:23;0.40;99.90
52709;DHT22;38606;52.986;6.980;2023-01-26T02:08:53;1.30;99.90
52709;DHT22;38606;52.986;6.980;2023-01-26T02:11:24;0.40;99.90
52709;DHT22;38606;52.986;6.980;2023-01-26T02:13:51;1.70;99.90
52709;DHT22;38606;52.986;6.980;2023-01-26T02:16:18;0.40;99.90
52709;DHT22;38606;52.986;6.980;2023-01-26T02:18:44;0.60;99.90
52709;DHT22;38606;52.986;6.980;2023-01-26T02:21:14;1.60;99.90
52709;DHT22;38606;52.986;6.980;2023-01-26T02:23:54;0.70;99.90
52709;DHT22;38606;52.986;6.980;2023-01-26T02:26:26;0.40;99.90
52709;DHT22;38606;52.986;6.980;2023-01-26T02:28:52;1.60;99.90
52709;DHT22;38606;52.986;6.980;2023-01-26T02:31:18;1.90;99.90
52709;DHT22;38606;52.986;6.980;2023-01-26T02:33:44;0.40;99.90
52709;DHT22;38606;52.986;6.980;2023-01-26T02:36:22;0.50;99.90
52709;DHT22;38606;52.986;6.980;2023-01-26T02:42:09;0.70;99.90
52709;DHT22;38606;52.986;6.980;2023-01-26T02:44:54;0.60;99.90
52709;DHT22;38606;52.986;6.980;2023-01-26T02:47:19;0.60;99.90
52709;DHT22;38606;52.986;6.980;2023-01-26T02:49:45;0.90;99.90
52709;DHT22;38606;52.986;6.980;2023-01-26T02:52:12;1.60;99.90
52709;DHT22;38606;52.986;6.980;2023-01-26T02:54:37;1.00;99.90
52709;DHT22;38606;52.986;6.980;2023-01-26T02:57:22;0.40;99.90
52709;DHT22;38606;52.986;6.980;2023-01-26T02:59:47;0.40;99.90
52709;DHT22;38606;52.986;6.980;2023-01-26T03:02:14;1.90;99.90
52709;DHT22;38606;52.986;6.980;2023-01-26T03:04:41;1.60;99.90
52709;DHT22;38606;52.986;6.980;2023-01-26T03:07:07;2.10;99.90
52709;DHT22;38606;52.986;6.980;2023-01-26T03:09:32;0.70;99.90
52709;DHT22;38606;52.986;6.980;2023-01-26T03:11:58;0.90;99.90
52709;DHT22;38606;52.986;6.980;2023-01-26T03:14:24;0.70;99.90
52709;DHT22;38606;52.986;6.980;2023-01-26T03:16:49;1.20;99.90
52709;DHT22;38606;52.986;6.980;2023-01-26T03:19:15;1.60;99.90
52709;DHT22;38606;52.986;6.980;2023-01-26T03:22:00;0.60;99.90
52709;DHT22;38606;52.986;6.980;2023-01-26T03:24:45;0.70;99.90
52709;DHT22;38606;52.986;6.980;2023-01-26T03:27:45;0.50;99.90
52709;DHT22;38606;52.986;6.980;2023-01-26T03:30:12;0.70;99.90
52709;DHT22;38606;52.986;6.980;2023-01-26T03:32:38;0.80;99.90
52709;DHT22;38606;52.986;6.980;2023-01-26T03:35:05;1.40;99.90
52709;DHT22;38606;52.986;6.980;2023-01-26T03:37:31;0.70;99.90
52709;DHT22;38606;52.986;6.980;2023-01-26T03:40:04;0.80;99.90
52709;DHT22;38606;52.986;6.980;2023-01-26T03:42:49;0.60;99.90
52709;DHT22;38606;52.986;6.980;2023-01-26T03:45:33;0.60;99.90
52709;DHT22;38606;52.986;6.980;2023-01-26T03:48:17;0.70;99.90
52709;DHT22;38606;52.986;6.980;2023-01-26T03:51:02;1.50;99.90
52709;DHT22;38606;52.986;6.980;2023-01-26T03:53:46;0.90;99.90
52709;DHT22;38606;52.986;6.980;2023-01-26T03:56:31;1.70;99.90
52709;DHT22;38606;52.986;6.980;2023-01-26T03:58:59;0.90;99.90
52709;DHT22;38606;52.986;6.980;2023-01-26T04:01:44;1.90;99.90
52709;DHT22;38606;52.986;6.980;2023-01-26T04:04:28;1.20;99.90
52709;DHT22;38606;52.986;6.980;2023-01-26T04:07:12;1.40;99.90
52709;DHT22;38606;52.986;6.980;2023-01-26T04:09:56;0.90;99.90
52709;DHT22;38606;52.986;6.980;2023-01-26T04:12:22;0.70;99.90
52709;DHT22;38606;52.986;6.980;2023-01-26T04:14:48;0.90;99.90
52709;DHT22;38606;52.986;6.980;2023-01-26T04:17:33;0.80;99.90
52709;DHT22;38606;52.986;6.980;2023-01-26T04:20:17;1.70;99.90
52709;DHT22;38606;52.986;6.980;2023-01-26T04:23:01;2.10;99.90
52709;DHT22;38606;52.986;6.980;2023-01-26T04:25:27;0.80;99.90
52709;DHT22;38606;52.986;6.980;2023-01-26T04:27:52;0.90;99.90
52709;DHT22;38606;52.986;6.980;2023-01-26T04:30:18;0.80;99.90
52709;DHT22;38606;52.986;6.980;2023-01-26T04:32:44;0.70;99.90
52709;DHT22;38606;52.986;6.980;2023-01-26T04:35:13;1.00;99.90
52709;DHT22;38606;52.986;6.980;2023-01-26T04:37:39;0.70;99.90
52709;DHT22;38606;52.986;6.980;2023-01-26T04:40:06;1.40;99.90
52709;DHT22;38606;52.986;6.980;2023-01-26T04:42:31;0.80;99.90
52709;DHT22;38606;52.986;6.980;2023-01-26T04:44:57;1.10;99.90
52709;DHT22;38606;52.986;6.980;2023-01-26T04:47:23;1.00;99.90
52709;DHT22;38606;52.986;6.980;2023-01-26T04:49:49;1.90;99.90
52709;DHT22;38606;52.986;6.980;2023-01-26T04:52:14;1.40;99.90
52709;DHT22;38606;52.986;6.980;2023-01-26T04:54:40;0.70;99.90
52709;DHT22;38606;52.986;6.980;2023-01-26T04:57:07;1.00;99.90
52709;DHT22;38606;52.986;6.980;2023-01-26T04:59:33;1.00;99.90
52709;DHT22;38606;52.986;6.980;2023-01-26T05:01:59;1.00;99.90
52709;DHT22;38606;52.986;6.980;2023-01-26T05:04:24;2.10;99.90
52709;DHT22;38606;52.986;6.980;2023-01-26T05:06:50;2.50;99.90
52709;DHT22;38606;52.986;6.980;2023-01-26T05:09:16;1.50;99.90
52709;DHT22;38606;52.986;6.980;2023-01-26T05:11:41;1.20;99.90
52709;DHT22;38606;52.986;6.980;2023-01-26T05:14:07;1.00;99.90
52709;DHT22;38606;52.986;6.980;2023-01-26T05:16:33;1.30;99.90
52709;DHT22;38606;52.986;6.980;2023-01-26T05:18:58;1.70;99.90
52709;DHT22;38606;52.986;6.980;2023-01-26T05:21:24;2.00;99.90
52709;DHT22;38606;52.986;6.980;2023-01-26T05:23:52;2.20;99.90
52709;DHT22;38606;52.986;6.980;2023-01-26T05:26:18;1.20;99.90
52709;DHT22;38606;52.986;6.980;2023-01-26T05:28:44;1.00;99.90
52709;DHT22;38606;52.986;6.980;2023-01-26T05:31:09;1.00;99.90
52709;DHT22;38606;52.986;6.980;2023-01-26T05:33:35;1.80;99.90
52709;DHT22;38606;52.986;6.980;2023-01-26T05:36:05;1.90;99.90
52709;DHT22;38606;52.986;6.980;2023-01-26T05:38:32;-0.60;99.90
52709;DHT22;38606;52.986;6.980;2023-01-26T05:40:58;1.70;99.90
52709;DHT22;38606;52.986;6.980;2023-01-26T05:43:23;2.40;99.90
52709;DHT22;38606;52.986;6.980;2023-01-26T05:45:49;1.10;99.90
52709;DHT22;38606;52.986;6.980;2023-01-26T05:48:15;1.30;99.90
52709;DHT22;38606;52.986;6.980;2023-01-26T05:50:41;0.90;99.90
52709;DHT22;38606;52.986;6.980;2023-01-26T05:53:07;1.10;99.90
52709;DHT22;38606;52.986;6.980;2023-01-26T05:55:32;1.30;99.90
52709;DHT22;38606;52.986;6.980;2023-01-26T05:57:58;1.10;99.90
52709;DHT22;38606;52.986;6.980;2023-01-26T06:00:24;1.30;99.90
52709;DHT22;38606;52.986;6.980;2023-01-26T06:02:50;1.10;99.90
52709;DHT22;38606;52.986;6.980;2023-01-26T06:05:15;0.90;99.90
52709;DHT22;38606;52.986;6.980;2023-01-26T06:07:41;1.20;99.90
52709;DHT22;38606;52.986;6.980;2023-01-26T06:10:07;2.00;99.90
52709;DHT22;38606;52.986;6.980;2023-01-26T06:12:33;1.10;99.90
52709;DHT22;38606;52.986;6.980;2023-01-26T06:15:04;1.40;99.90
52709;DHT22;38606;52.986;6.980;2023-01-26T06:17:30;1.30;99.90
52709;DHT22;38606;52.986;6.980;2023-01-26T06:19:56;1.20;99.90
52709;DHT22;38606;52.986;6.980;2023-01-26T06:22:22;1.50;99.90
52709;DHT22;38606;52.986;6.980;2023-01-26T06:24:48;1.30;99.90
52709;DHT22;38606;52.986;6.980;2023-01-26T06:27:15;1.50;99.90
52709;DHT22;38606;52.986;6.980;2023-01-26T06:29:41;1.50;99.90
52709;DHT22;38606;52.986;6.980;2023-01-26T06:32:09;1.30;99.90
52709;DHT22;38606;52.986;6.980;2023-01-26T06:34:36;1.20;99.90
52709;DHT22;38606;52.986;6.980;2023-01-26T06:37:03;1.30;99.90
52709;DHT22;38606;52.986;6.980;2023-01-26T06:39:29;2.30;99.90
52709;DHT22;38606;52.986;6.980;2023-01-26T06:41:55;1.40;99.90
52709;DHT22;38606;52.986;6.980;2023-01-26T06:44:20;2.60;99.90
52709;DHT22;38606;52.986;6.980;2023-01-26T06:46:46;1.30;99.90
52709;DHT22;38606;52.986;6.980;2023-01-26T06:49:12;1.50;99.90
52709;DHT22;38606;52.986;6.980;2023-01-26T06:54:19;1.30;99.90
52709;DHT22;38606;52.986;6.980;2023-01-26T06:56:45;2.50;99.90
52709;DHT22;38606;52.986;6.980;2023-01-26T06:59:10;2.50;99.90
52709;DHT22;38606;52.986;6.980;2023-01-26T07:01:44;1.40;99.90
52709;DHT22;38606;52.986;6.980;2023-01-26T07:04:11;1.40;99.90
52709;DHT22;38606;52.986;6.980;2023-01-26T07:06:37;1.60;99.90
52709;DHT22;38606;52.986;6.980;2023-01-26T07:09:03;2.50;99.90
52709;DHT22;38606;52.986;6.980;2023-01-26T07:11:29;2.10;99.90
52709;DHT22;38606;52.986;6.980;2023-01-26T07:13:56;1.40;99.90
52709;DHT22;38606;52.986;6.980;2023-01-26T07:16:22;1.00;99.90
52709;DHT22;38606;52.986;6.980;2023-01-26T07:18:48;1.50;99.90
52709;DHT22;38606;52.986;6.980;2023-01-26T07:21:16;1.60;99.90
52709;DHT22;38606;52.986;6.980;2023-01-26T07:23:47;2.30;99.90
52709;DHT22;38606;52.986;6.980;2023-01-26T07:26:14;2.30;99.90
52709;DHT22;38606;52.986;6.980;2023-01-26T07:28:40;1.80;99.90
52709;DHT22;38606;52.986;6.980;2023-01-26T07:31:07;2.00;99.90
52709;DHT22;38606;52.986;6.980;2023-01-26T07:33:33;1.60;99.90
52709;DHT22;38606;52.986;6.980;2023-01-26T07:35:59;1.90;99.90
52709;DHT22;38606;52.986;6.980;2023-01-26T07:38:26;2.50;99.90
52709;DHT22;38606;52.986;6.980;2023-01-26T07:40:53;1.90;99.90
52709;DHT22;38606;52.986;6.980;2023-01-26T07:43:19;1.60;99.90
52709;DHT22;38606;52.986;6.980;2023-01-26T07:45:47;1.70;99.90
52709;DHT22;38606;52.986;6.980;2023-01-26T07:48:14;1.70;99.90
52709;DHT22;38606;52.986;6.980;2023-01-26T07:50:40;2.80;99.90
52709;DHT22;38606;52.986;6.980;2023-01-26T07:53:05;1.60;99.90
52709;DHT22;38606;52.986;6.980;2023-01-26T07:55:34;1.60;99.90
52709;DHT22;38606;52.986;6.980;2023-01-26T07:58:00;2.70;99.90
52709;DHT22;38606;52.986;6.980;2023-01-26T08:00:25;1.70;99.90
52709;DHT22;38606;52.986;6.980;2023-01-26T08:02:51;3.30;99.90
52709;DHT22;38606;52.986;6.980;2023-01-26T08:05:17;2.70;99.90
52709;DHT22;38606;52.986;6.980;2023-01-26T08:07:43;2.00;99.90
52709;DHT22;38606;52.986;6.980;2023-01-26T08:10:09;1.80;99.90
52709;DHT22;38606;52.986;6.980;2023-01-26T08:12:36;1.80;99.90
52709;DHT22;38606;52.986;6.980;2023-01-26T08:15:02;2.70;99.90
52709;DHT22;38606;52.986;6.980;2023-01-26T08:17:29;1.70;99.90
52709;DHT22;38606;52.986;6.980;2023-01-26T08:19:55;2.20;99.90
52709;DHT22;38606;52.986;6.980;2023-01-26T08:22:20;1.90;99.90
52709;DHT22;38606;52.986;6.980;2023-01-26T08:24:46;2.20;99.90
52709;DHT22;38606;52.986;6.980;2023-01-26T08:27:14;1.80;99.90
52709;DHT22;38606;52.986;6.980;2023-01-26T08:29:44;1.80;99.90
52709;DHT22;38606;52.986;6.980;2023-01-26T08:32:10;1.80;99.90
52709;DHT22;38606;52.986;6.980;2023-01-26T08:34:35;2.10;99.90
52709;DHT22;38606;52.986;6.980;2023-01-26T08:37:02;2.10;99.90
52709;DHT22;38606;52.986;6.980;2023-01-26T08:39:28;1.90;99.90
52709;DHT22;38606;52.986;6.980;2023-01-26T08:41:54;2.80;99.90
52709;DHT22;38606;52.986;6.980;2023-01-26T08:44:20;1.80;99.90
52709;DHT22;38606;52.986;6.980;2023-01-26T08:46:45;2.40;99.90
52709;DHT22;38606;52.986;6.980;2023-01-26T08:49:11;1.90;99.90
52709;DHT22;38606;52.986;6.980;2023-01-26T08:51:37;1.80;99.90
52709;DHT22;38606;52.986;6.980;2023-01-26T08:54:06;2.50;99.90
52709;DHT22;38606;52.986;6.980;2023-01-26T08:56:35;1.80;99.90
52709;DHT22;38606;52.986;6.980;2023-01-26T08:59:00;1.80;99.90
52709;DHT22;38606;52.986;6.980;2023-01-26T09:01:26;2.40;99.90
52709;DHT22;38606;52.986;6.980;2023-01-26T09:03:52;1.80;99.90
52709;DHT22;38606;52.986;6.980;2023-01-26T09:06:19;1.90;99.90
52709;DHT22;38606;52.986;6.980;2023-01-26T09:08:45;2.80;99.90
52709;DHT22;38606;52.986;6.980;2023-01-26T09:11:11;2.70;99.90
52709;DHT22;38606;52.986;6.980;2023-01-26T09:13:37;2.50;99.90
52709;DHT22;38606;52.986;6.980;2023-01-26T09:16:10;2.40;99.90
52709;DHT22;38606;52.986;6.980;2023-01-26T09:18:37;1.80;99.90
52709;DHT22;38606;52.986;6.980;2023-01-26T09:21:04;2.80;99.90
52709;DHT22;38606;52.986;6.980;2023-01-26T09:23:31;2.00;99.90
52709;DHT22;38606;52.986;6.980;2023-01-26T09:25:57;3.00;99.90
52709;DHT22;38606;52.986;6.980;2023-01-26T09:28:23;2.20;99.90
52709;DHT22;38606;52.986;6.980;2023-01-26T09:30:49;2.20;99.90
52709;DHT22;38606;52.986;6.980;2023-01-26T09:33:15;3.30;99.90
52709;DHT22;38606;52.986;6.980;2023-01-26T09:35:40;2.70;99.90
52709;DHT22;38606;52.986;6.980;2023-01-26T09:38:06;3.30;99.90
52709;DHT22;38606;52.986;6.980;2023-01-26T09:46:23;3.00;99.90
52709;DHT22;38606;52.986;6.980;2023-01-26T09:51:31;3.00;99.90
52709;DHT22;38606;52.986;6.980;2023-01-26T09:54:31;4.00;99.90
52709;DHT22;38606;52.986;6.980;2023-01-26T09:57:00;3.50;99.90
52709;DHT22;38606;52.986;6.980;2023-01-26T09:59:35;3.40;99.90
52709;DHT22;38606;52.986;6.980;2023-01-26T10:02:36;3.70;99.90
52709;DHT22;38606;52.986;6.980;2023-01-26T10:07:52;4.20;99.90
52709;DHT22;38606;52.986;6.980;2023-01-26T10:10:31;3.90;99.90
52709;DHT22;38606;52.986;6.980;2023-01-26T10:12:59;5.20;99.90
52709;DHT22;38606;52.986;6.980;2023-01-26T10:15:37;4.60;99.90
52709;DHT22;38606;52.986;6.980;2023-01-26T10:18:07;4.20;99.90
52709;DHT22;38606;52.986;6.980;2023-01-26T10:20:38;4.00;99.90
52709;DHT22;38606;52.986;6.980;2023-01-26T10:23:29;4.30;99.90
52709;DHT22;38606;52.986;6.980;2023-01-26T10:26:06;4.50;99.90
52709;DHT22;38606;52.986;6.980;2023-01-26T10:28:35;4.50;99.90
52709;DHT22;38606;52.986;6.980;2023-01-26T10:31:07;5.00;99.90
52709;DHT22;38606;52.986;6.980;2023-01-26T10:33:37;4.80;99.90
52709;DHT22;38606;52.986;6.980;2023-01-26T10:36:06;4.80;99.90
52709;DHT22;38606;52.986;6.980;2023-01-26T10:41:02;4.80;99.90
52709;DHT22;38606;52.986;6.980;2023-01-26T10:43:31;5.60;99.90
52709;DHT22;38606;52.986;6.980;2023-01-26T10:46:00;3.90;99.90
52709;DHT22;38606;52.986;6.980;2023-01-26T10:48:27;6.00;99.90
52709;DHT22;38606;52.986;6.980;2023-01-26T10:50:54;5.10;99.90
52709;DHT22;38606;52.986;6.980;2023-01-26T10:53:27;5.50;99.90
52709;DHT22;38606;52.986;6.980;2023-01-26T10:58:54;5.60;99.90
52709;DHT22;38606;52.986;6.980;2023-01-26T11:01:22;5.60;99.90
52709;DHT22;38606;52.986;6.980;2023-01-26T11:04:03;7.00;99.90
52709;DHT22;38606;52.986;6.980;2023-01-26T11:06:29;6.00;99.90
52709;DHT22;38606;52.986;6.980;2023-01-26T11:11:40;6.10;99.90
52709;DHT22;38606;52.986;6.980;2023-01-26T11:14:17;7.10;99.90
52709;DHT22;38606;52.986;6.980;2023-01-26T11:16:54;6.00;99.90
52709;DHT22;38606;52.986;6.980;2023-01-26T11:22:10;6.20;99.90
52709;DHT22;38606;52.986;6.980;2023-01-26T11:33:38;6.60;99.90
52709;DHT22;38606;52.986;6.980;2023-01-26T11:41:43;6.70;99.90
52709;DHT22;38606;52.986;6.980;2023-01-26T11:47:06;7.00;99.90
52709;DHT22;38606;52.986;6.980;2023-01-26T12:03:16;7.20;99.90
52709;DHT22;38606;52.986;6.980;2023-01-26T12:05:47;7.20;99.90
52709;DHT22;38606;52.986;6.980;2023-01-26T12:10:49;7.30;99.90
52709;DHT22;38606;52.986;6.980;2023-01-26T12:15:58;7.40;99.90
52709;DHT22;38606;52.986;6.980;2023-01-26T12:18:33;7.50;99.90
52709;DHT22;38606;52.986;6.980;2023-01-26T12:21:07;7.50;99.90
52709;DHT22;38606;52.986;6.980;2023-01-26T12:23:48;7.70;99.90
52709;DHT22;38606;52.986;6.980;2023-01-26T12:26:19;7.60;99.90
52709;DHT22;38606;52.986;6.980;2023-01-26T12:29:06;7.70;99.90
52709;DHT22;38606;52.986;6.980;2023-01-26T12:32:13;7.60;99.90
52709;DHT22;38606;52.986;6.980;2023-01-26T12:34:40;7.70;99.90
52709;DHT22;38606;52.986;6.980;2023-01-26T12:45:19;7.70;99.90
52709;DHT22;38606;52.986;6.980;2023-01-26T12:48:03;7.80;99.90
52709;DHT22;38606;52.986;6.980;2023-01-26T12:53:32;7.70;99.90
52709;DHT22;38606;52.986;6.980;2023-01-26T12:56:11;7.50;99.90
52709;DHT22;38606;52.986;6.980;2023-01-26T12:58:44;7.80;99.90
52709;DHT22;38606;52.986;6.980;2023-01-26T13:01:14;7.50;99.90
52709;DHT22;38606;52.986;6.980;2023-01-26T13:03:42;7.60;99.90
52709;DHT22;38606;52.986;6.980;2023-01-26T13:11:05;7.90;99.90
52709;DHT22;38606;52.986;6.980;2023-01-26T13:13:33;8.00;99.90
52709;DHT22;38606;52.986;6.980;2023-01-26T13:16:32;7.80;99.90
52709;DHT22;38606;52.986;6.980;2023-01-26T13:19:00;8.00;99.90
52709;DHT22;38606;52.986;6.980;2023-01-26T13:26:57;8.00;99.90
52709;DHT22;38606;52.986;6.980;2023-01-26T13:31:51;7.80;99.90
52709;DHT22;38606;52.986;6.980;2023-01-26T13:34:36;7.80;99.90
52709;DHT22;38606;52.986;6.980;2023-01-26T13:37:32;7.60;99.90
52709;DHT22;38606;52.986;6.980;2023-01-26T13:40:13;7.60;99.90
52709;DHT22;38606;52.986;6.980;2023-01-26T13:48:46;7.30;99.90
52709;DHT22;38606;52.986;6.980;2023-01-26T13:51:17;7.60;99.90
52709;DHT22;38606;52.986;6.980;2023-01-26T13:59:15;7.60;99.90
52709;DHT22;38606;52.986;6.980;2023-01-26T14:01:47;7.30;99.90
52709;DHT22;38606;52.986;6.980;2023-01-26T14:04:16;7.50;99.90
52709;DHT22;38606;52.986;6.980;2023-01-26T14:06:53;7.50;99.90
52709;DHT22;38606;52.986;6.980;2023-01-26T14:09:21;7.30;99.90
52709;DHT22;38606;52.986;6.980;2023-01-26T14:12:02;7.60;99.90
52709;DHT22;38606;52.986;6.980;2023-01-26T14:14:32;7.50;99.90
52709;DHT22;38606;52.986;6.980;2023-01-26T14:16:59;7.30;99.90
52709;DHT22;38606;52.986;6.980;2023-01-26T14:19:27;7.40;99.90
52709;DHT22;38606;52.986;6.980;2023-01-26T14:21:59;7.50;99.90
52709;DHT22;38606;52.986;6.980;2023-01-26T14:26:54;7.40;99.90
52709;DHT22;38606;52.986;6.980;2023-01-26T14:29:22;7.40;99.90
52709;DHT22;38606;52.986;6.980;2023-01-26T14:31:51;7.40;99.90
52709;DHT22;38606;52.986;6.980;2023-01-26T14:34:30;7.20;99.90
52709;DHT22;38606;52.986;6.980;2023-01-26T14:37:26;7.40;99.90
52709;DHT22;38606;52.986;6.980;2023-01-26T14:40:20;7.20;99.90
52709;DHT22;38606;52.986;6.980;2023-01-26T14:42:51;7.10;99.90
52709;DHT22;38606;52.986;6.980;2023-01-26T14:45:29;7.20;99.90
52709;DHT22;38606;52.986;6.980;2023-01-26T14:47:58;7.10;99.90
52709;DHT22;38606;52.986;6.980;2023-01-26T14:50:28;7.20;99.90
52709;DHT22;38606;52.986;6.980;2023-01-26T14:52:57;7.00;99.90
52709;DHT22;38606;52.986;6.980;2023-01-26T14:55:35;7.00;99.90
52709;DHT22;38606;52.986;6.980;2023-01-26T14:58:02;7.10;99.90
52709;DHT22;38606;52.986;6.980;2023-01-26T15:00:36;7.10;99.90
52709;DHT22;38606;52.986;6.980;2023-01-26T15:03:35;7.10;99.90
52709;DHT22;38606;52.986;6.980;2023-01-26T15:06:06;7.00;99.90
52709;DHT22;38606;52.986;6.980;2023-01-26T15:08:32;7.00;99.90
52709;DHT22;38606;52.986;6.980;2023-01-26T15:11:00;7.10;99.90
52709;DHT22;38606;52.986;6.980;2023-01-26T15:13:52;7.60;99.90
52709;DHT22;38606;52.986;6.980;2023-01-26T15:16:20;7.00;99.90
52709;DHT22;38606;52.986;6.980;2023-01-26T15:18:57;7.10;99.90
52709;DHT22;38606;52.986;6.980;2023-01-26T15:21:36;7.00;99.90
52709;DHT22;38606;52.986;6.980;2023-01-26T15:24:12;6.90;99.90
52709;DHT22;38606;52.986;6.980;2023-01-26T15:26:39;6.80;99.90
52709;DHT22;38606;52.986;6.980;2023-01-26T15:31:42;6.80;99.90
52709;DHT22;38606;52.986;6.980;2023-01-26T15:34:31;6.80;99.90
52709;DHT22;38606;52.986;6.980;2023-01-26T15:36:57;6.90;99.90
52709;DHT22;38606;52.986;6.980;2023-01-26T15:39:23;6.70;99.90
52709;DHT22;38606;52.986;6.980;2023-01-26T15:42:12;6.50;99.90
52709;DHT22;38606;52.986;6.980;2023-01-26T15:44:38;6.70;99.90
52709;DHT22;38606;52.986;6.980;2023-01-26T15:47:04;6.70;99.90
52709;DHT22;38606;52.986;6.980;2023-01-26T15:49:29;6.70;99.90
52709;DHT22;38606;52.986;6.980;2023-01-26T15:51:55;6.60;99.90
52709;DHT22;38606;52.986;6.980;2023-01-26T15:54:21;6.50;99.90
52709;DHT22;38606;52.986;6.980;2023-01-26T15:56:47;6.40;99.90
52709;DHT22;38606;52.986;6.980;2023-01-26T15:59:12;6.60;99.90
52709;DHT22;38606;52.986;6.980;2023-01-26T16:01:38;6.40;99.90
52709;DHT22;38606;52.986;6.980;2023-01-26T16:04:04;6.40;99.90
52709;DHT22;38606;52.986;6.980;2023-01-26T16:06:31;6.40;99.90
52709;DHT22;38606;52.986;6.980;2023-01-26T16:08:58;6.10;99.90
52709;DHT22;38606;52.986;6.980;2023-01-26T16:11:30;6.20;99.90
52709;DHT22;38606;52.986;6.980;2023-01-26T16:13:58;6.00;99.90
52709;DHT22;38606;52.986;6.980;2023-01-26T16:16:23;6.00;99.90
52709;DHT22;38606;52.986;6.980;2023-01-26T16:18:54;6.20;99.90
52709;DHT22;38606;52.986;6.980;2023-01-26T16:21:33;5.90;99.90
52709;DHT22;38606;52.986;6.980;2023-01-26T16:24:00;6.00;99.90
52709;DHT22;38606;52.986;6.980;2023-01-26T16:26:27;6.10;99.90
52709;DHT22;38606;52.986;6.980;2023-01-26T16:28:53;5.60;99.90
52709;DHT22;38606;52.986;6.980;2023-01-26T16:31:23;5.50;99.90
52709;DHT22;38606;52.986;6.980;2023-01-26T16:33:50;5.50;99.90
52709;DHT22;38606;52.986;6.980;2023-01-26T16:36:18;5.50;99.90
52709;DHT22;38606;52.986;6.980;2023-01-26T16:38:44;5.60;99.90
52709;DHT22;38606;52.986;6.980;2023-01-26T16:41:20;5.60;99.90
52709;DHT22;38606;52.986;6.980;2023-01-26T16:43:47;5.70;99.90
52709;DHT22;38606;52.986;6.980;2023-01-26T16:46:13;5.70;99.90
52709;DHT22;38606;52.986;6.980;2023-01-26T16:48:39;5.40;99.90
52709;DHT22;38606;52.986;6.980;2023-01-26T16:51:35;5.50;99.90
52709;DHT22;38606;52.986;6.980;2023-01-26T16:54:04;5.50;99.90
52709;DHT22;38606;52.986;6.980;2023-01-26T16:56:30;5.50;99.90
52709;DHT22;38606;52.986;6.980;2023-01-26T16:58:57;5.60;99.90
52709;DHT22;38606;52.986;6.980;2023-01-26T17:01:34;6.00;99.90
52709;DHT22;38606;52.986;6.980;2023-01-26T17:04:00;6.30;99.90
52709;DHT22;38606;52.986;6.980;2023-01-26T17:06:27;5.50;99.90
52709;DHT22;38606;52.986;6.980;2023-01-26T17:08:52;5.50;99.90
52709;DHT22;38606;52.986;6.980;2023-01-26T17:11:21;5.90;99.90
52709;DHT22;38606;52.986;6.980;2023-01-26T17:13:47;5.50;99.90
52709;DHT22;38606;52.986;6.980;2023-01-26T17:16:16;5.30;99.90
52709;DHT22;38606;52.986;6.980;2023-01-26T17:18:42;5.50;99.90
52709;DHT22;38606;52.986;6.980;2023-01-26T17:21:14;5.40;99.90
52709;DHT22;38606;52.986;6.980;2023-01-26T17:23:40;5.50;99.90
52709;DHT22;38606;52.986;6.980;2023-01-26T17:26:11;6.40;99.90
52709;DHT22;38606;52.986;6.980;2023-01-26T17:28:37;5.70;99.90
52709;DHT22;38606;52.986;6.980;2023-01-26T17:31:11;5.20;99.90
52709;DHT22;38606;52.986;6.980;2023-01-26T17:33:38;5.40;99.90
52709;DHT22;38606;52.986;6.980;2023-01-26T17:36:05;5.50;99.90
52709;DHT22;38606;52.986;6.980;2023-01-26T17:38:32;5.10;99.90
52709;DHT22;38606;52.986;6.980;2023-01-26T17:40:58;5.40;99.90
52709;DHT22;38606;52.986;6.980;2023-01-26T17:43:24;5.50;99.90
52709;DHT22;38606;52.986;6.980;2023-01-26T17:45:50;5.40;99.90
52709;DHT22;38606;52.986;6.980;2023-01-26T17:48:16;5.30;99.90
52709;DHT22;38606;52.986;6.980;2023-01-26T17:50:49;5.30;99.90